createdAt,value
2017-07-05T00:00:54.865Z,958.2
2017-07-05T00:01:54.857Z,958.18
2017-07-05T00:02:54.861Z,958.18
2017-07-05T00:03:54.867Z,958.17
2017-07-05T00:04:54.836Z,958.16
2017-07-05T00:05:54.830Z,958.13
2017-07-05T00:06:54.823Z,958.13
2017-07-05T00:07:54.815Z,958.11
2017-07-05T00:08:54.808Z,958.11
2017-07-05T00:09:54.802Z,958.08
2017-07-05T00:10:54.797Z,958.11
2017-07-05T00:11:54.789Z,958.09
2017-07-05T00:12:54.781Z,958.1
2017-07-05T00:13:54.775Z,958.1
2017-07-05T00:14:54.777Z,958.07
2017-07-05T00:15:54.762Z,958.09
2017-07-05T00:16:54.756Z,958.04
2017-07-05T00:17:54.748Z,958.02
2017-07-05T00:18:54.754Z,958.04
2017-07-05T00:19:54.735Z,958.02
2017-07-05T00:20:54.729Z,958.03
2017-07-05T00:21:54.722Z,958
2017-07-05T00:22:54.716Z,958
2017-07-05T00:23:54.708Z,958
2017-07-05T00:24:54.701Z,957.96
2017-07-05T00:25:54.698Z,957.99
2017-07-05T00:26:54.688Z,957.95
2017-07-05T00:27:54.680Z,957.98
2017-07-05T00:28:54.674Z,957.92
2017-07-05T00:29:54.667Z,957.92
2017-07-05T00:30:54.659Z,957.9
2017-07-05T00:31:54.653Z,957.91
2017-07-05T00:32:54.647Z,957.87
2017-07-05T00:33:54.640Z,957.93
2017-07-05T00:34:54.632Z,957.87
2017-07-05T00:35:54.626Z,957.88
2017-07-05T00:36:54.619Z,957.89
2017-07-05T00:37:54.611Z,957.84
2017-07-05T00:38:54.603Z,957.87
2017-07-05T00:39:54.598Z,957.85
2017-07-05T00:40:54.842Z,957.85
2017-07-05T00:41:54.584Z,957.83
2017-07-05T00:42:54.576Z,957.84
2017-07-05T00:43:54.568Z,957.84
2017-07-05T00:44:54.562Z,957.83
2017-07-05T00:45:54.555Z,957.81
2017-07-05T00:46:54.548Z,957.79
2017-07-05T00:47:54.541Z,957.82
2017-07-05T00:48:54.533Z,957.78
2017-07-05T00:49:54.526Z,957.79
2017-07-05T00:50:54.519Z,957.79
2017-07-05T00:51:54.513Z,957.77
2017-07-05T00:52:54.505Z,957.77
2017-07-05T00:53:54.502Z,957.79
2017-07-05T00:54:54.491Z,957.79
2017-07-05T00:55:54.486Z,957.76
2017-07-05T00:56:54.477Z,957.77
2017-07-05T00:57:54.471Z,957.75
2017-07-05T00:58:54.463Z,957.76
2017-07-05T00:59:54.456Z,957.75
2017-07-05T01:00:54.448Z,957.75
2017-07-05T01:01:54.443Z,957.74
2017-07-05T01:02:54.435Z,957.77
2017-07-05T01:03:54.427Z,957.77
2017-07-05T01:04:54.421Z,957.73
2017-07-05T01:05:54.414Z,957.74
2017-07-05T01:06:54.407Z,957.67
2017-07-05T01:07:54.398Z,957.67
2017-07-05T01:08:54.406Z,957.66
2017-07-05T01:09:54.394Z,957.67
2017-07-05T01:10:54.377Z,957.66
2017-07-05T01:11:54.374Z,957.64
2017-07-05T01:12:54.362Z,957.63
2017-07-05T01:13:54.377Z,957.66
2017-07-05T01:14:54.347Z,957.61
2017-07-05T01:15:54.342Z,957.62
2017-07-05T01:16:54.335Z,957.64
2017-07-05T01:17:54.328Z,957.64
2017-07-05T01:18:54.320Z,957.68
2017-07-05T01:19:54.312Z,957.69
2017-07-05T01:20:54.310Z,957.65
2017-07-05T01:21:54.298Z,957.64
2017-07-05T01:22:54.290Z,957.59
2017-07-05T01:23:54.284Z,957.66
2017-07-05T01:24:54.278Z,957.61
2017-07-05T01:25:54.269Z,957.63
2017-07-05T01:26:54.262Z,957.62
2017-07-05T01:27:54.257Z,957.66
2017-07-05T01:28:54.269Z,957.64
2017-07-05T01:29:54.258Z,957.66
2017-07-05T01:30:54.234Z,957.62
2017-07-05T01:31:54.227Z,957.63
2017-07-05T01:32:54.219Z,957.64
2017-07-05T01:33:54.212Z,957.57
2017-07-05T01:34:54.205Z,957.58
2017-07-05T01:35:54.212Z,957.54
2017-07-05T01:36:54.191Z,957.57
2017-07-05T01:37:54.183Z,957.58
2017-07-05T01:38:54.176Z,957.61
2017-07-05T01:39:54.167Z,957.66
2017-07-05T01:40:54.161Z,957.6
2017-07-05T01:41:54.154Z,957.6
2017-07-05T01:42:54.146Z,957.56
2017-07-05T01:43:54.148Z,957.6
2017-07-05T01:44:54.132Z,957.54
2017-07-05T01:45:54.125Z,957.58
2017-07-05T01:46:54.118Z,957.6
2017-07-05T01:47:54.110Z,957.58
2017-07-05T01:48:54.119Z,957.62
2017-07-05T01:49:54.097Z,957.62
2017-07-05T01:50:54.098Z,957.57
2017-07-05T01:51:54.083Z,957.56
2017-07-05T01:52:54.095Z,957.53
2017-07-05T01:53:54.070Z,957.52
2017-07-05T01:54:54.060Z,957.52
2017-07-05T01:55:54.051Z,957.5
2017-07-05T01:56:54.046Z,957.48
2017-07-05T01:57:54.039Z,957.47
2017-07-05T01:58:54.029Z,957.46
2017-07-05T01:59:54.035Z,957.46
2017-07-05T02:00:54.017Z,957.37
2017-07-05T02:01:54.007Z,957.43
2017-07-05T02:02:54.001Z,957.42
2017-07-05T02:03:54.000Z,957.38
2017-07-05T02:04:53.987Z,957.37
2017-07-05T02:05:53.983Z,957.35
2017-07-05T02:06:53.980Z,957.34
2017-07-05T02:07:53.964Z,957.35
2017-07-05T02:08:53.959Z,957.36
2017-07-05T02:09:53.949Z,957.34
2017-07-05T02:10:53.943Z,957.3
2017-07-05T02:11:53.952Z,957.3
2017-07-05T02:12:53.929Z,957.28
2017-07-05T02:13:53.920Z,957.26
2017-07-05T02:14:53.916Z,957.23
2017-07-05T02:15:53.927Z,957.19
2017-07-05T02:16:53.899Z,957.19
2017-07-05T02:17:53.892Z,957.26
2017-07-05T02:18:53.885Z,957.22
2017-07-05T02:19:53.879Z,957.19
2017-07-05T02:20:53.960Z,957.22
2017-07-05T02:21:53.864Z,957.23
2017-07-05T02:22:53.856Z,957.22
2017-07-05T02:23:53.848Z,957.22
2017-07-05T02:24:53.842Z,957.21
2017-07-05T02:25:53.835Z,957.18
2017-07-05T02:26:53.829Z,957.18
2017-07-05T02:27:53.821Z,957.16
2017-07-05T02:28:53.817Z,957.19
2017-07-05T02:29:53.818Z,957.2
2017-07-05T02:30:53.801Z,957.18
2017-07-05T02:31:53.792Z,957.14
2017-07-05T02:32:53.786Z,957.14
2017-07-05T02:33:53.778Z,957.17
2017-07-05T02:34:53.770Z,957.15
2017-07-05T02:35:53.763Z,957.17
2017-07-05T02:36:53.757Z,957.16
2017-07-05T02:37:53.753Z,957.16
2017-07-05T02:38:53.775Z,957.13
2017-07-05T02:39:53.737Z,957.15
2017-07-05T02:40:53.729Z,957.11
2017-07-05T02:41:53.772Z,957.09
2017-07-05T02:42:53.713Z,957
2017-07-05T02:43:53.709Z,957.06
2017-07-05T02:44:53.701Z,957.01
2017-07-05T02:45:53.693Z,957
2017-07-05T02:46:53.686Z,957
2017-07-05T02:47:53.680Z,956.98
2017-07-05T02:48:53.677Z,956.95
2017-07-05T02:49:53.671Z,956.93
2017-07-05T02:50:53.658Z,956.92
2017-07-05T02:51:53.651Z,956.91
2017-07-05T02:52:53.651Z,956.95
2017-07-05T02:53:53.647Z,956.89
2017-07-05T02:54:53.661Z,956.93
2017-07-05T02:55:53.624Z,956.92
2017-07-05T02:56:53.617Z,956.91
2017-07-05T02:57:53.609Z,956.86
2017-07-05T02:58:53.603Z,956.87
2017-07-05T02:59:53.597Z,956.84
2017-07-05T03:00:53.589Z,956.84
2017-07-05T03:01:53.581Z,956.86
2017-07-05T03:02:53.576Z,956.86
2017-07-05T03:03:53.570Z,956.86
2017-07-05T03:04:53.562Z,956.83
2017-07-05T03:05:53.555Z,956.81
2017-07-05T03:06:53.565Z,956.8
2017-07-05T03:07:53.541Z,956.8
2017-07-05T03:08:53.534Z,956.85
2017-07-05T03:09:53.528Z,956.85
2017-07-05T03:10:53.522Z,956.83
2017-07-05T03:11:53.514Z,956.8
2017-07-05T03:12:53.507Z,956.8
2017-07-05T03:13:53.501Z,956.76
2017-07-05T03:14:53.495Z,956.78
2017-07-05T03:15:53.488Z,956.77
2017-07-05T03:16:53.488Z,956.75
2017-07-05T03:17:53.475Z,956.74
2017-07-05T03:18:53.467Z,956.72
2017-07-05T03:19:53.460Z,956.74
2017-07-05T03:20:53.454Z,956.7
2017-07-05T03:21:53.497Z,956.72
2017-07-05T03:22:53.440Z,956.71
2017-07-05T03:23:53.434Z,956.71
2017-07-05T03:24:53.432Z,956.73
2017-07-05T03:25:53.441Z,956.73
2017-07-05T03:26:53.415Z,956.74
2017-07-05T03:27:53.408Z,956.71
2017-07-05T03:28:53.403Z,956.72
2017-07-05T03:29:53.396Z,956.75
2017-07-05T03:30:53.389Z,956.75
2017-07-05T03:31:53.382Z,956.74
2017-07-05T03:32:53.376Z,956.73
2017-07-05T03:33:53.375Z,956.75
2017-07-05T03:34:53.363Z,956.72
2017-07-05T03:35:53.358Z,956.73
2017-07-05T03:36:53.352Z,956.7
2017-07-05T03:37:53.343Z,956.7
2017-07-05T03:38:53.336Z,956.72
2017-07-05T03:39:53.332Z,956.69
2017-07-05T03:40:53.323Z,956.7
2017-07-05T03:41:53.323Z,956.67
2017-07-05T03:42:53.313Z,956.69
2017-07-05T03:43:53.306Z,956.68
2017-07-05T03:44:53.299Z,956.68
2017-07-05T03:45:53.292Z,956.7
2017-07-05T03:46:53.299Z,956.68
2017-07-05T03:47:53.279Z,956.71
2017-07-05T03:48:53.275Z,956.68
2017-07-05T03:49:53.268Z,956.71
2017-07-05T03:50:53.262Z,956.7
2017-07-05T03:51:53.254Z,956.72
2017-07-05T03:52:53.249Z,956.73
2017-07-05T03:53:53.243Z,956.71
2017-07-05T03:54:53.236Z,956.7
2017-07-05T03:55:53.230Z,956.76
2017-07-05T03:56:53.225Z,956.72
2017-07-05T03:57:53.219Z,956.71
2017-07-05T03:58:53.211Z,956.76
2017-07-05T03:59:53.205Z,956.77
2017-07-05T04:00:53.200Z,956.76
2017-07-05T04:01:53.195Z,956.78
2017-07-05T04:02:53.188Z,956.75
2017-07-05T04:03:53.182Z,956.74
2017-07-05T04:04:53.201Z,956.72
2017-07-05T04:05:53.171Z,956.72
2017-07-05T04:06:53.165Z,956.7
2017-07-05T04:07:53.159Z,956.71
2017-07-05T04:08:53.152Z,956.71
2017-07-05T04:09:53.147Z,956.69
2017-07-05T04:10:53.141Z,956.69
2017-07-05T04:11:53.140Z,956.72
2017-07-05T04:12:53.130Z,956.68
2017-07-05T04:13:53.123Z,956.69
2017-07-05T04:14:53.117Z,956.71
2017-07-05T04:15:53.112Z,956.68
2017-07-05T04:16:53.107Z,956.7
2017-07-05T04:17:53.101Z,956.73
2017-07-05T04:18:53.096Z,956.73
2017-07-05T04:19:53.090Z,956.74
2017-07-05T04:20:53.083Z,956.72
2017-07-05T04:21:53.078Z,956.69
2017-07-05T04:22:53.073Z,956.75
2017-07-05T04:23:53.071Z,956.74
2017-07-05T04:24:53.061Z,956.68
2017-07-05T04:25:53.060Z,956.68
2017-07-05T04:26:53.051Z,956.67
2017-07-05T04:27:53.046Z,956.7
2017-07-05T04:28:53.090Z,956.7
2017-07-05T04:29:53.033Z,956.69
2017-07-05T04:30:53.030Z,956.7
2017-07-05T04:31:53.025Z,956.68
2017-07-05T04:32:53.018Z,956.68
2017-07-05T04:33:53.013Z,956.66
2017-07-05T04:34:53.009Z,956.64
2017-07-05T04:35:53.002Z,956.66
2017-07-05T04:36:52.997Z,956.65
2017-07-05T04:37:52.993Z,956.61
2017-07-05T04:38:52.987Z,956.66
2017-07-05T04:39:52.983Z,956.68
2017-07-05T04:40:52.977Z,956.64
2017-07-05T04:41:52.972Z,956.69
2017-07-05T04:42:52.986Z,956.68
2017-07-05T04:43:52.997Z,956.68
2017-07-05T04:44:52.957Z,956.71
2017-07-05T04:45:52.952Z,956.72
2017-07-05T04:46:52.945Z,956.71
2017-07-05T04:47:52.941Z,956.7
2017-07-05T04:48:52.937Z,956.68
2017-07-05T04:49:52.932Z,956.71
2017-07-05T04:50:52.926Z,956.73
2017-07-05T04:51:52.922Z,956.72
2017-07-05T04:52:52.934Z,956.71
2017-07-05T04:53:52.911Z,956.74
2017-07-05T04:54:52.907Z,956.72
2017-07-05T04:55:52.901Z,956.75
2017-07-05T04:56:52.900Z,956.74
2017-07-05T04:57:52.891Z,956.73
2017-07-05T04:58:52.888Z,956.76
2017-07-05T04:59:52.882Z,956.71
2017-07-05T05:00:52.879Z,956.74
2017-07-05T05:01:52.875Z,956.72
2017-07-05T05:02:52.871Z,956.73
2017-07-05T05:03:52.866Z,956.69
2017-07-05T05:04:52.862Z,956.69
2017-07-05T05:05:52.857Z,956.7
2017-07-05T05:06:52.892Z,956.71
2017-07-05T05:07:52.849Z,956.72
2017-07-05T05:08:52.844Z,956.72
2017-07-05T05:09:52.842Z,956.76
2017-07-05T05:10:52.850Z,956.76
2017-07-05T05:11:52.851Z,956.75
2017-07-05T05:12:52.827Z,956.74
2017-07-05T05:13:52.826Z,956.76
2017-07-05T05:14:52.819Z,956.72
2017-07-05T05:15:52.813Z,956.75
2017-07-05T05:16:52.808Z,956.76
2017-07-05T05:17:52.805Z,956.74
2017-07-05T05:18:52.801Z,956.71
2017-07-05T05:19:52.795Z,956.68
2017-07-05T05:20:52.807Z,956.72
2017-07-05T05:21:52.788Z,956.68
2017-07-05T05:22:52.784Z,956.71
2017-07-05T05:23:52.779Z,956.71
2017-07-05T05:24:52.776Z,956.71
2017-07-05T05:25:52.771Z,956.71
2017-07-05T05:26:52.769Z,956.73
2017-07-05T05:27:52.764Z,956.67
2017-07-05T05:28:52.760Z,956.67
2017-07-05T05:29:52.757Z,956.73
2017-07-05T05:30:52.752Z,956.71
2017-07-05T05:31:52.749Z,956.67
2017-07-05T05:32:52.744Z,956.7
2017-07-05T05:33:52.740Z,956.68
2017-07-05T05:34:52.738Z,956.69
2017-07-05T05:35:52.735Z,956.73
2017-07-05T05:36:52.730Z,956.75
2017-07-05T05:37:52.761Z,956.75
2017-07-05T05:38:52.723Z,956.74
2017-07-05T05:39:52.723Z,956.77
2017-07-05T05:40:52.717Z,956.79
2017-07-05T05:41:52.730Z,956.73
2017-07-05T05:42:52.710Z,956.71
2017-07-05T05:43:52.705Z,956.72
2017-07-05T05:44:52.702Z,956.76
2017-07-05T05:45:52.699Z,956.69
2017-07-05T05:46:52.702Z,956.74
2017-07-05T05:47:52.693Z,956.7
2017-07-05T05:48:52.713Z,956.71
2017-07-05T05:49:52.687Z,956.7
2017-07-05T05:50:52.684Z,956.67
2017-07-05T05:51:52.681Z,956.66
2017-07-05T05:52:52.694Z,956.65
2017-07-05T05:53:52.674Z,956.65
2017-07-05T05:54:52.672Z,956.69
2017-07-05T05:55:52.671Z,956.64
2017-07-05T05:56:52.667Z,956.66
2017-07-05T05:57:52.662Z,956.68
2017-07-05T05:58:52.659Z,956.65
2017-07-05T05:59:52.657Z,956.7
2017-07-05T06:00:52.654Z,956.69
2017-07-05T06:01:52.651Z,956.72
2017-07-05T06:02:52.650Z,956.71
2017-07-05T06:03:52.684Z,956.7
2017-07-05T06:04:52.642Z,956.72
2017-07-05T06:05:52.677Z,956.74
2017-07-05T06:06:52.637Z,956.73
2017-07-05T06:07:52.635Z,956.71
2017-07-05T06:08:52.632Z,956.75
2017-07-05T06:09:52.679Z,956.74
2017-07-05T06:10:52.634Z,956.71
2017-07-05T06:11:52.625Z,956.75
2017-07-05T06:12:52.622Z,956.74
2017-07-05T06:13:52.622Z,956.77
2017-07-05T06:14:52.623Z,956.79
2017-07-05T06:15:52.616Z,956.75
2017-07-05T06:16:52.635Z,956.75
2017-07-05T06:17:52.610Z,956.75
2017-07-05T06:18:52.608Z,956.76
2017-07-05T06:19:52.607Z,956.74
2017-07-05T06:20:52.605Z,956.77
2017-07-05T06:21:52.601Z,956.74
2017-07-05T06:22:52.599Z,956.71
2017-07-05T06:23:52.599Z,956.75
2017-07-05T06:24:52.615Z,956.72
2017-07-05T06:25:52.594Z,956.69
2017-07-05T06:26:52.592Z,956.7
2017-07-05T06:27:52.592Z,956.7
2017-07-05T06:28:52.606Z,956.71
2017-07-05T06:29:52.610Z,956.67
2017-07-05T06:30:52.586Z,956.67
2017-07-05T06:31:52.585Z,956.65
2017-07-05T06:32:52.582Z,956.68
2017-07-05T06:33:52.581Z,956.65
2017-07-05T06:34:52.581Z,956.68
2017-07-05T06:35:52.579Z,956.66
2017-07-05T06:36:52.578Z,956.66
2017-07-05T06:37:52.576Z,956.67
2017-07-05T06:38:52.576Z,956.66
2017-07-05T06:39:52.572Z,956.68
2017-07-05T06:40:52.573Z,956.65
2017-07-05T06:41:52.572Z,956.73
2017-07-05T06:42:52.572Z,956.68
2017-07-05T06:43:52.569Z,956.71
2017-07-05T06:44:52.569Z,956.74
2017-07-05T06:45:52.568Z,956.73
2017-07-05T06:46:52.567Z,956.73
2017-07-05T06:47:52.567Z,956.71
2017-07-05T06:48:52.576Z,956.7
2017-07-05T06:49:52.567Z,956.72
2017-07-05T06:50:52.567Z,956.64
2017-07-05T06:51:52.567Z,956.69
2017-07-05T06:52:52.569Z,956.73
2017-07-05T06:53:52.570Z,956.67
2017-07-05T06:54:52.571Z,956.68
2017-07-05T06:55:52.572Z,956.67
2017-07-05T06:56:52.575Z,956.66
2017-07-05T06:57:52.577Z,956.71
2017-07-05T06:58:52.585Z,956.75
2017-07-05T06:59:52.584Z,956.74
2017-07-05T07:00:52.587Z,956.74
2017-07-05T07:01:52.593Z,956.68
2017-07-05T07:02:52.606Z,956.67
2017-07-05T07:03:52.613Z,956.7
2017-07-05T07:04:52.602Z,956.72
2017-07-05T07:05:52.614Z,956.76
2017-07-05T07:06:52.632Z,956.69
2017-07-05T07:07:52.616Z,956.66
2017-07-05T07:08:52.620Z,956.65
2017-07-05T07:09:52.625Z,956.66
2017-07-05T07:10:52.631Z,956.68
2017-07-05T07:11:52.636Z,956.7
2017-07-05T07:12:52.641Z,956.64
2017-07-05T07:13:52.649Z,956.68
2017-07-05T07:14:52.654Z,956.67
2017-07-05T07:15:52.662Z,956.73
2017-07-05T07:16:52.666Z,956.71
2017-07-05T07:17:52.678Z,956.65
2017-07-05T07:18:52.682Z,956.65
2017-07-05T07:19:52.687Z,956.63
2017-07-05T07:20:52.695Z,956.7
2017-07-05T07:21:52.701Z,956.68
2017-07-05T07:22:52.718Z,956.74
2017-07-05T07:23:52.716Z,956.71
2017-07-05T07:24:52.723Z,956.72
2017-07-05T07:25:52.732Z,956.74
2017-07-05T07:26:52.739Z,956.73
2017-07-05T07:27:52.751Z,956.74
2017-07-05T07:28:52.754Z,956.74
2017-07-05T07:29:52.771Z,956.77
2017-07-05T07:30:52.770Z,956.79
2017-07-05T07:31:52.779Z,956.77
2017-07-05T07:32:52.788Z,956.66
2017-07-05T07:33:52.795Z,956.7
2017-07-05T07:34:52.850Z,956.71
2017-07-05T07:35:52.811Z,956.76
2017-07-05T07:36:52.820Z,956.82
2017-07-05T07:37:52.831Z,956.84
2017-07-05T07:38:52.840Z,956.89
2017-07-05T07:39:52.847Z,956.83
2017-07-05T07:40:52.856Z,956.72
2017-07-05T07:41:52.866Z,956.61
2017-07-05T07:42:52.874Z,956.57
2017-07-05T07:43:52.893Z,956.51
2017-07-05T07:44:52.892Z,956.53
2017-07-05T07:45:52.900Z,956.52
2017-07-05T07:46:52.908Z,956.51
2017-07-05T07:47:52.919Z,956.54
2017-07-05T07:48:52.927Z,956.55
2017-07-05T07:49:52.936Z,956.56
2017-07-05T07:50:52.945Z,956.54
2017-07-05T07:51:52.954Z,956.53
2017-07-05T07:52:52.962Z,956.54
2017-07-05T07:53:52.970Z,956.53
2017-07-05T07:54:52.980Z,956.55
2017-07-05T07:55:52.990Z,956.53
2017-07-05T07:56:52.998Z,956.54
2017-07-05T07:57:53.008Z,956.57
2017-07-05T07:58:53.016Z,956.52
2017-07-05T07:59:53.027Z,956.56
2017-07-05T08:00:53.034Z,956.56
2017-07-05T08:01:53.045Z,956.55
2017-07-05T08:02:53.053Z,956.54
2017-07-05T08:03:53.060Z,956.54
2017-07-05T08:04:53.071Z,956.47
2017-07-05T08:05:53.081Z,956.51
2017-07-05T08:06:53.088Z,956.48
2017-07-05T08:07:53.098Z,956.5
2017-07-05T08:08:53.110Z,956.53
2017-07-05T08:09:53.115Z,956.51
2017-07-05T08:10:53.126Z,956.53
2017-07-05T08:11:53.134Z,956.54
2017-07-05T08:12:53.142Z,956.53
2017-07-05T08:13:53.151Z,956.56
2017-07-05T08:14:53.157Z,956.54
2017-07-05T08:15:53.166Z,956.53
2017-07-05T08:16:53.173Z,956.53
2017-07-05T08:17:53.181Z,956.51
2017-07-05T08:18:53.187Z,956.52
2017-07-05T08:19:53.211Z,956.51
2017-07-05T08:20:53.204Z,956.51
2017-07-05T08:21:53.209Z,956.54
2017-07-05T08:22:53.217Z,956.51
2017-07-05T08:23:53.225Z,956.51
2017-07-05T08:24:53.232Z,956.53
2017-07-05T08:25:53.236Z,956.48
2017-07-05T08:26:53.244Z,956.5
2017-07-05T08:27:53.251Z,956.5
2017-07-05T08:28:53.258Z,956.47
2017-07-05T08:29:53.263Z,956.48
2017-07-05T08:30:53.268Z,956.45
2017-07-05T08:31:53.276Z,956.5
2017-07-05T08:32:53.281Z,956.49
2017-07-05T08:33:53.287Z,956.47
2017-07-05T08:34:53.304Z,956.47
2017-07-05T08:35:53.310Z,956.49
2017-07-05T08:36:53.310Z,956.49
2017-07-05T08:37:53.310Z,956.56
2017-07-05T08:38:53.315Z,956.48
2017-07-05T08:39:53.321Z,956.49
2017-07-05T08:40:53.325Z,956.48
2017-07-05T08:41:53.331Z,956.5
2017-07-05T08:42:53.337Z,956.47
2017-07-05T08:43:53.339Z,956.49
2017-07-05T08:44:53.345Z,956.49
2017-07-05T08:45:53.351Z,956.49
2017-07-05T08:46:53.356Z,956.47
2017-07-05T08:47:53.360Z,956.48
2017-07-05T08:48:53.366Z,956.44
2017-07-05T08:49:53.371Z,956.43
2017-07-05T08:50:53.379Z,956.43
2017-07-05T08:51:53.379Z,956.47
2017-07-05T08:52:53.383Z,956.47
2017-07-05T08:53:53.389Z,956.44
2017-07-05T08:54:53.390Z,956.44
2017-07-05T08:55:53.397Z,956.39
2017-07-05T08:56:53.401Z,956.44
2017-07-05T08:57:53.405Z,956.48
2017-07-05T08:58:53.410Z,956.45
2017-07-05T08:59:53.414Z,956.46
2017-07-05T09:00:53.419Z,956.37
2017-07-05T09:01:53.423Z,956.44
2017-07-05T09:02:53.427Z,956.45
2017-07-05T09:03:53.434Z,956.44
2017-07-05T09:04:53.441Z,956.51
2017-07-05T09:05:53.457Z,956.43
2017-07-05T09:06:53.444Z,956.42
2017-07-05T09:07:53.449Z,956.42
2017-07-05T09:08:53.466Z,956.43
2017-07-05T09:09:53.457Z,956.43
2017-07-05T09:10:53.464Z,956.42
2017-07-05T09:11:53.466Z,956.38
2017-07-05T09:12:53.471Z,956.4
2017-07-05T09:13:53.475Z,956.39
2017-07-05T09:14:53.480Z,956.37
2017-07-05T09:15:53.485Z,956.34
2017-07-05T09:16:53.491Z,956.33
2017-07-05T09:17:53.493Z,956.35
2017-07-05T09:18:53.497Z,956.4
2017-07-05T09:19:53.501Z,956.35
2017-07-05T09:20:53.505Z,956.4
2017-07-05T09:21:53.510Z,956.32
2017-07-05T09:22:53.514Z,956.33
2017-07-05T09:23:53.517Z,956.34
2017-07-05T09:24:53.521Z,956.39
2017-07-05T09:25:53.525Z,956.37
2017-07-05T09:26:53.530Z,956.35
2017-07-05T09:27:53.534Z,956.44
2017-07-05T09:28:53.537Z,956.44
2017-07-05T09:29:53.543Z,956.34
2017-07-05T09:30:53.546Z,956.38
2017-07-05T09:31:53.549Z,956.4
2017-07-05T09:32:53.552Z,956.38
2017-07-05T09:33:53.555Z,956.4
2017-07-05T09:34:53.559Z,956.43
2017-07-05T09:35:53.562Z,956.46
2017-07-05T09:36:53.566Z,956.38
2017-07-05T09:37:53.570Z,956.4
2017-07-05T09:38:53.572Z,956.39
2017-07-05T09:39:53.575Z,956.39
2017-07-05T09:40:53.580Z,956.34
2017-07-05T09:41:53.584Z,956.35
2017-07-05T09:42:53.586Z,956.35
2017-07-05T09:43:53.590Z,956.35
2017-07-05T09:44:53.594Z,956.36
2017-07-05T09:45:53.597Z,956.31
2017-07-05T09:46:53.602Z,956.34
2017-07-05T09:47:53.605Z,956.34
2017-07-05T09:48:53.612Z,956.31
2017-07-05T09:49:53.615Z,956.29
2017-07-05T09:50:53.628Z,956.27
2017-07-05T09:51:53.622Z,956.31
2017-07-05T09:52:53.627Z,956.34
2017-07-05T09:53:53.630Z,956.37
2017-07-05T09:54:53.633Z,956.3
2017-07-05T09:55:53.662Z,956.36
2017-07-05T09:56:53.664Z,956.27
2017-07-05T09:57:53.647Z,956.31
2017-07-05T09:58:53.650Z,956.25
2017-07-05T09:59:53.654Z,956.31
2017-07-05T10:00:53.658Z,956.31
2017-07-05T10:01:53.662Z,956.27
2017-07-05T10:02:53.667Z,956.34
2017-07-05T10:03:53.671Z,956.33
2017-07-05T10:04:53.674Z,956.29
2017-07-05T10:05:53.679Z,956.33
2017-07-05T10:06:53.683Z,956.32
2017-07-05T10:07:53.686Z,956.28
2017-07-05T10:08:53.694Z,956.32
2017-07-05T10:09:53.695Z,956.33
2017-07-05T10:10:53.700Z,956.27
2017-07-05T10:11:53.703Z,956.26
2017-07-05T10:12:53.706Z,956.21
2017-07-05T10:13:53.710Z,956.27
2017-07-05T10:14:53.716Z,956.28
2017-07-05T10:15:53.719Z,956.28
2017-07-05T10:16:53.723Z,956.31
2017-07-05T10:17:53.727Z,956.27
2017-07-05T10:18:53.729Z,956.25
2017-07-05T10:19:53.734Z,956.31
2017-07-05T10:20:53.736Z,956.27
2017-07-05T10:21:53.741Z,956.29
2017-07-05T10:22:53.745Z,956.3
2017-07-05T10:23:53.748Z,956.23
2017-07-05T10:24:53.751Z,956.3
2017-07-05T10:25:53.760Z,956.25
2017-07-05T10:26:53.759Z,956.35
2017-07-05T10:27:53.763Z,956.28
2017-07-05T10:28:53.767Z,956.24
2017-07-05T10:29:53.770Z,956.21
2017-07-05T10:30:53.773Z,956.18
2017-07-05T10:31:53.778Z,956.15
2017-07-05T10:32:53.782Z,956.17
2017-07-05T10:33:53.788Z,956.16
2017-07-05T10:34:53.790Z,956.13
2017-07-05T10:35:53.797Z,956.12
2017-07-05T10:36:53.798Z,956.17
2017-07-05T10:37:53.801Z,956.23
2017-07-05T10:38:53.807Z,956.21
2017-07-05T10:39:53.809Z,956.2
2017-07-05T10:40:53.828Z,956.22
2017-07-05T10:41:53.835Z,956.23
2017-07-05T10:42:53.822Z,956.25
2017-07-05T10:43:53.826Z,956.27
2017-07-05T10:44:53.829Z,956.19
2017-07-05T10:45:53.836Z,956.17
2017-07-05T10:46:53.846Z,956.2
2017-07-05T10:47:53.864Z,956.19
2017-07-05T10:48:53.867Z,956.15
2017-07-05T10:49:53.853Z,956.17
2017-07-05T10:50:53.859Z,956.19
2017-07-05T10:51:53.864Z,956.19
2017-07-05T10:52:53.868Z,956.21
2017-07-05T10:53:53.875Z,956.22
2017-07-05T10:54:53.878Z,956.21
2017-07-05T10:55:53.883Z,956.21
2017-07-05T10:56:53.891Z,956.17
2017-07-05T10:57:53.892Z,956.13
2017-07-05T10:58:53.898Z,956.17
2017-07-05T10:59:53.903Z,956.16
2017-07-05T11:00:53.909Z,956.17
2017-07-05T11:01:53.912Z,956.16
2017-07-05T11:02:53.914Z,956.17
2017-07-05T11:03:53.920Z,956.15
2017-07-05T11:04:53.926Z,956.18
2017-07-05T11:05:53.931Z,956.15
2017-07-05T11:06:53.936Z,956.12
2017-07-05T11:07:53.939Z,956.11
2017-07-05T11:08:53.943Z,956.12
2017-07-05T11:09:53.949Z,956.15
2017-07-05T11:10:53.952Z,956.15
2017-07-05T11:11:53.957Z,956.11
2017-07-05T11:12:53.965Z,956.09
2017-07-05T11:13:53.964Z,956.07
2017-07-05T11:14:53.968Z,956.08
2017-07-05T11:15:53.970Z,956.13
2017-07-05T11:16:53.975Z,956.08
2017-07-05T11:17:53.979Z,956.05
2017-07-05T11:18:53.983Z,956.07
2017-07-05T11:19:53.987Z,956.05
2017-07-05T11:20:54.003Z,956.09
2017-07-05T11:21:53.994Z,956.09
2017-07-05T11:22:53.997Z,956.08
2017-07-05T11:23:54.001Z,956.07
2017-07-05T11:24:54.004Z,956.04
2017-07-05T11:25:54.007Z,956.05
2017-07-05T11:26:54.012Z,956.02
2017-07-05T11:27:54.015Z,956.03
2017-07-05T11:28:54.017Z,956.01
2017-07-05T11:29:54.029Z,956.02
2017-07-05T11:30:54.030Z,956.05
2017-07-05T11:31:54.028Z,956
2017-07-05T11:32:54.033Z,956.03
2017-07-05T11:33:54.033Z,956
2017-07-05T11:34:54.056Z,956.01
2017-07-05T11:35:54.060Z,956.03
2017-07-05T11:36:54.041Z,956
2017-07-05T11:37:54.097Z,956.03
2017-07-05T11:38:54.046Z,956.05
2017-07-05T11:39:54.048Z,956.04
2017-07-05T11:40:54.051Z,956.01
2017-07-05T11:41:54.055Z,956.02
2017-07-05T11:42:54.057Z,956.02
2017-07-05T11:43:54.060Z,956.02
2017-07-05T11:44:54.063Z,956.04
2017-07-05T11:45:54.065Z,956.03
2017-07-05T11:46:54.067Z,956.02
2017-07-05T11:47:54.071Z,955.98
2017-07-05T11:48:54.074Z,955.97
2017-07-05T11:49:54.076Z,955.95
2017-07-05T11:50:54.079Z,955.92
2017-07-05T11:51:54.081Z,955.98
2017-07-05T11:52:54.085Z,955.93
2017-07-05T11:53:54.087Z,955.88
2017-07-05T11:54:54.089Z,955.88
2017-07-05T11:55:54.093Z,955.88
2017-07-05T11:56:54.095Z,955.89
2017-07-05T11:57:54.099Z,955.84
2017-07-05T11:58:54.102Z,955.83
2017-07-05T11:59:54.105Z,955.86
2017-07-05T12:00:54.108Z,955.86
2017-07-05T12:01:54.110Z,955.82
2017-07-05T12:02:54.127Z,955.82
2017-07-05T12:03:54.115Z,955.79
2017-07-05T12:04:54.134Z,955.77
2017-07-05T12:05:54.120Z,955.77
2017-07-05T12:06:54.135Z,955.75
2017-07-05T12:07:54.131Z,955.79
2017-07-05T12:08:54.130Z,955.78
2017-07-05T12:09:54.134Z,955.78
2017-07-05T12:10:54.137Z,955.84
2017-07-05T12:11:54.144Z,955.84
2017-07-05T12:12:54.142Z,955.8
2017-07-05T12:13:54.145Z,955.82
2017-07-05T12:14:54.149Z,955.84
2017-07-05T12:15:54.151Z,955.87
2017-07-05T12:16:54.156Z,955.8
2017-07-05T12:17:54.159Z,955.84
2017-07-05T12:18:54.162Z,955.88
2017-07-05T12:19:54.164Z,955.96
2017-07-05T12:20:54.167Z,955.92
2017-07-05T12:21:54.169Z,955.91
2017-07-05T12:22:54.173Z,955.87
2017-07-05T12:23:54.174Z,955.92
2017-07-05T12:24:54.193Z,955.94
2017-07-05T12:25:54.181Z,955.97
2017-07-05T12:26:54.182Z,955.96
2017-07-05T12:27:54.185Z,955.89
2017-07-05T12:28:54.188Z,955.93
2017-07-05T12:29:54.190Z,955.91
2017-07-05T12:30:54.192Z,955.96
2017-07-05T12:31:54.194Z,956